createdAt,value
2022-08-26T00:02:03.167Z,98876.18
2022-08-26T00:04:32.189Z,98875.48
2022-08-26T00:07:00.634Z,98875.54
2022-08-26T00:09:28.752Z,98874.73
2022-08-26T00:11:56.716Z,98875.27
2022-08-26T00:14:31.053Z,98872.27
2022-08-26T00:17:02.731Z,98875.11
2022-08-26T00:19:30.689Z,98873.97
2022-08-26T00:21:58.526Z,98867.88
2022-08-26T00:24:30.691Z,98869.25
2022-08-26T00:26:59.028Z,98872.98
2022-08-26T00:29:30.721Z,98874.20
2022-08-26T00:32:06.775Z,98876.08
2022-08-26T00:34:36.827Z,98878.66
2022-08-26T00:37:09.069Z,98874.78
2022-08-26T00:39:41.363Z,98873.36
2022-08-26T00:42:11.146Z,98873.72
2022-08-26T00:44:40.846Z,98875.23
2022-08-26T00:47:31.090Z,98877.23
2022-08-26T00:50:06.757Z,98880.31
2022-08-26T00:52:37.218Z,98882.09
2022-08-26T00:55:22.292Z,98880.79
2022-08-26T00:57:52.705Z,98882.73
2022-08-26T01:00:28.467Z,98884.14
2022-08-26T01:03:02.582Z,98884.34
2022-08-26T01:05:34.923Z,98885.13
2022-08-26T01:08:04.663Z,98887.37
2022-08-26T01:10:32.598Z,98889.38
2022-08-26T01:13:10.285Z,98890.11
2022-08-26T01:15:55.041Z,98884.26
2022-08-26T01:18:26.847Z,98885.64
2022-08-26T01:21:20.417Z,98883.66
2022-08-26T01:23:57.623Z,98888.38
2022-08-26T01:26:41.383Z,98888.77
2022-08-26T01:29:14.987Z,98889.80
2022-08-26T01:31:47.556Z,98887.50
2022-08-26T01:34:37.542Z,98888.06
2022-08-26T01:37:15.596Z,98886.92
2022-08-26T01:39:51.201Z,98888.06
2022-08-26T01:42:24.037Z,98889.16
2022-08-26T01:45:02.955Z,98887.41
2022-08-26T01:47:37.177Z,98894.08
2022-08-26T01:50:15.653Z,98894.91
2022-08-26T01:52:54.331Z,98897.84
2022-08-26T01:55:27.704Z,98898.88
2022-08-26T01:58:13.873Z,98899.85
2022-08-26T02:00:41.888Z,98900.40
2022-08-26T02:03:17.384Z,98893.69
2022-08-26T02:06:09.272Z,98892.29
2022-08-26T02:08:48.182Z,98888.48
2022-08-26T02:11:21.621Z,98886.79
2022-08-26T02:14:04.179Z,98886.88
2022-08-26T02:16:39.900Z,98882.55
2022-08-26T02:19:20.701Z,98883.05
2022-08-26T02:21:53.084Z,98883.20
2022-08-26T02:24:27.241Z,98882.55
2022-08-26T02:26:58.175Z,98885.44
2022-08-26T02:29:41.424Z,98882.86
2022-08-26T02:32:11.497Z,98889.46
2022-08-26T02:34:40.079Z,98885.40
2022-08-26T02:37:11.758Z,98883.45
2022-08-26T02:39:42.919Z,98883.33
2022-08-26T02:42:12.435Z,98883.40
2022-08-26T02:44:41.903Z,98881.00
2022-08-26T02:47:17.036Z,98878.25
2022-08-26T02:49:47.490Z,98876.30
2022-08-26T02:52:16.228Z,98874.92
2022-08-26T02:54:45.874Z,98875.55
2022-08-26T02:57:20.689Z,98872.25
2022-08-26T02:59:51.526Z,98871.48
2022-08-26T03:02:21.916Z,98868.77
2022-08-26T03:04:57.835Z,98869.85
2022-08-26T03:07:31.518Z,98872.90
2022-08-26T03:10:08.112Z,98873.50
2022-08-26T03:12:41.061Z,98872.48
2022-08-26T03:15:17.518Z,98872.52
2022-08-26T03:17:50.272Z,98872.73
2022-08-26T03:20:20.722Z,98875.36
2022-08-26T03:22:53.062Z,98876.05
2022-08-26T03:25:28.349Z,98870.70
2022-08-26T03:27:57.504Z,98869.95
2022-08-26T03:30:39.722Z,98869.36
2022-08-26T03:33:16.555Z,98866.80
2022-08-26T03:35:50.479Z,98869.30
2022-08-26T03:38:25.152Z,98869.31
2022-08-26T03:40:54.546Z,98871.61
2022-08-26T03:43:26.263Z,98871.47
2022-08-26T03:45:55.604Z,98870.63
2022-08-26T03:48:25.558Z,98863.89
2022-08-26T03:50:54.943Z,98859.58
2022-08-26T03:53:25.167Z,98858.29
2022-08-26T03:55:55.134Z,98859.14
2022-08-26T03:58:26.057Z,98858.14
2022-08-26T04:00:55.527Z,98857.80
2022-08-26T04:03:46.041Z,98856.81
2022-08-26T04:06:15.162Z,98860.80
2022-08-26T04:08:45.824Z,98867.90
2022-08-26T04:11:23.695Z,98867.54
2022-08-26T04:13:51.585Z,98865.34
2022-08-26T04:16:21.248Z,98865.50
2022-08-26T04:18:52.240Z,98862.41
2022-08-26T04:21:21.514Z,98859.45
2022-08-26T04:23:51.915Z,98861.13
2022-08-26T04:26:22.904Z,98859.05
2022-08-26T04:28:54.349Z,98857.18
2022-08-26T04:31:26.407Z,98859.34
2022-08-26T04:34:00.528Z,98857.67
2022-08-26T04:36:30.160Z,98861.33
2022-08-26T04:39:02.256Z,98865.51
2022-08-26T04:41:31.981Z,98859.95
2022-08-26T04:44:06.450Z,98864.20
2022-08-26T04:46:34.296Z,98866.55
2022-08-26T04:49:09.917Z,98865.33
2022-08-26T04:51:39.422Z,98865.77
2022-08-26T04:54:09.796Z,98864.20
2022-08-26T04:56:43.867Z,98862.42
2022-08-26T04:59:17.024Z,98862.24
2022-08-26T05:01:50.435Z,98867.15
2022-08-26T05:04:21.035Z,98870.10
2022-08-26T05:06:50.652Z,98870.94
2022-08-26T05:09:21.604Z,98868.71
2022-08-26T05:11:51.830Z,98867.23
2022-08-26T05:14:23.732Z,98875.30
2022-08-26T05:16:54.042Z,98869.56
2022-08-26T05:19:22.083Z,98869.73
2022-08-26T05:21:51.225Z,98867.05
2022-08-26T05:24:20.887Z,98871.69
2022-08-26T05:26:51.055Z,98877.30
2022-08-26T05:29:19.113Z,98876.98
2022-08-26T05:31:52.079Z,98880.70
2022-08-26T05:34:22.446Z,98879.92
2022-08-26T05:36:55.155Z,98880.83
2022-08-26T05:39:26.265Z,98881.22
2022-08-26T05:41:54.060Z,98881.04
2022-08-26T05:44:26.114Z,98878.25
2022-08-26T05:46:55.660Z,98879.17
2022-08-26T05:49:26.222Z,98877.15
2022-08-26T05:51:57.636Z,98874.81
2022-08-26T05:54:27.551Z,98874.23
2022-08-26T05:56:55.290Z,98873.30
2022-08-26T05:59:24.446Z,98871.54
2022-08-26T06:01:56.622Z,98869.25
2022-08-26T06:04:29.150Z,98867.61
2022-08-26T06:07:01.382Z,98865.17
2022-08-26T06:09:29.275Z,98864.66
2022-08-26T06:12:03.491Z,98864.58
2022-08-26T06:14:31.669Z,98864.27
2022-08-26T06:17:02.530Z,98866.95
2022-08-26T06:19:34.617Z,98859.97
2022-08-26T06:22:24.096Z,98859.55
2022-08-26T06:25:14.140Z,98862.20
2022-08-26T06:27:42.160Z,98860.42
2022-08-26T06:30:12.095Z,98863.15
2022-08-26T06:32:42.039Z,98864.93
2022-08-26T06:35:11.919Z,98864.52
2022-08-26T06:37:42.688Z,98860.38
2022-08-26T06:40:12.342Z,98859.92
2022-08-26T06:42:41.777Z,98858.23
2022-08-26T06:45:11.290Z,98861.01
2022-08-26T06:47:39.316Z,98860.02
2022-08-26T06:50:08.867Z,98861.23
2022-08-26T06:52:43.168Z,98860.66
2022-08-26T06:55:11.145Z,98861.91
2022-08-26T06:57:41.230Z,98858.27
2022-08-26T07:00:11.307Z,98853.98
2022-08-26T07:02:46.057Z,98861.09
2022-08-26T07:05:15.764Z,98854.61
2022-08-26T07:07:45.179Z,98855.02
2022-08-26T07:10:14.570Z,98854.34
2022-08-26T07:12:47.233Z,98853.77
2022-08-26T07:15:17.370Z,98851.35
2022-08-26T07:17:47.052Z,98851.83
2022-08-26T07:20:17.648Z,98852.45
2022-08-26T07:22:48.755Z,98853.60
2022-08-26T07:25:17.702Z,98845.36
2022-08-26T07:27:54.369Z,98843.89
2022-08-26T07:30:25.719Z,98841.02
2022-08-26T07:32:57.628Z,98839.87
2022-08-26T07:35:28.221Z,98841.16
2022-08-26T07:37:57.198Z,98842.30
2022-08-26T07:40:26.706Z,98843.41
2022-08-26T07:42:54.651Z,98841.11
2022-08-26T07:45:24.324Z,98840.46
2022-08-26T07:47:52.978Z,98839.92
2022-08-26T07:50:23.784Z,98838.09
2022-08-26T07:52:52.035Z,98835.23
2022-08-26T07:55:23.541Z,98832.66
2022-08-26T07:57:51.662Z,98835.69
2022-08-26T08:00:20.864Z,98832.79
2022-08-26T08:02:50.274Z,98830.27
2022-08-26T08:05:23.505Z,98827.99
2022-08-26T08:08:27.326Z,98824.19
2022-08-26T08:10:57.561Z,98820.59
2022-08-26T08:13:30.433Z,98821.98
2022-08-26T08:16:00.771Z,98819.27
2022-08-26T08:18:30.553Z,98820.64
2022-08-26T08:21:21.209Z,98817.34
2022-08-26T08:23:54.513Z,98818.91
2022-08-26T08:26:26.253Z,98815.52
2022-08-26T08:28:57.282Z,98813.14
2022-08-26T08:31:56.454Z,98815.09
2022-08-26T08:34:21.496Z,98816.85
2022-08-26T08:36:53.331Z,98812.24
2022-08-26T08:39:25.609Z,98812.48
2022-08-26T08:42:05.856Z,98807.73
2022-08-26T08:44:41.685Z,98809.10
2022-08-26T08:47:27.437Z,98807.11
2022-08-26T08:50:06.900Z,98807.62
2022-08-26T08:52:38.251Z,98805.33
2022-08-26T08:55:10.311Z,98806.20
2022-08-26T08:58:02.287Z,98810.06
2022-08-26T09:00:46.297Z,98805.30
2022-08-26T09:03:31.939Z,98798.20
2022-08-26T09:06:04.877Z,98801.91
2022-08-26T09:08:38.912Z,98799.30
2022-08-26T09:11:09.674Z,98803.27
2022-08-26T09:13:42.305Z,98801.77
2022-08-26T09:16:19.182Z,98798.49
2022-08-26T09:19:06.496Z,98803.70
2022-08-26T09:21:34.922Z,98800.98
2022-08-26T09:24:03.613Z,98802.81
2022-08-26T09:26:44.109Z,98800.48
2022-08-26T09:29:28.673Z,98796.81
2022-08-26T09:32:27.491Z,98796.26
2022-08-26T09:35:47.110Z,98802.35
2022-08-26T09:38:33.941Z,98799.87
2022-08-26T09:41:24.778Z,98796.36
2022-08-26T09:44:14.410Z,98796.47
2022-08-26T09:46:58.683Z,98794.42
2022-08-26T09:49:38.101Z,98794.56
2022-08-26T09:52:29.678Z,98790.52
2022-08-26T09:55:06.655Z,98786.97
2022-08-26T09:57:48.647Z,98784.41
2022-08-26T10:00:29.788Z,98781.27
2022-08-26T10:03:01.029Z,98780.17
2022-08-26T10:05:32.524Z,98779.93
2022-08-26T10:08:19.714Z,98777.60
2022-08-26T10:10:53.110Z,98773.25
2022-08-26T10:13:35.206Z,98773.83
2022-08-26T10:16:14.743Z,98772.06
2022-08-26T10:19:11.392Z,98772.61
2022-08-26T10:21:54.056Z,98774.60
2022-08-26T10:24:40.514Z,98771.86
2022-08-26T10:27:53.482Z,98778.80
2022-08-26T10:30:34.077Z,98777.61
2022-08-26T10:33:09.050Z,98772.30
2022-08-26T10:35:58.597Z,98770.38
2022-08-26T10:38:37.624Z,98762.44
2022-08-26T10:41:18.000Z,98763.85
2022-08-26T10:44:16.518Z,98765.28
2022-08-26T10:47:06.602Z,98759.83
2022-08-26T10:49:39.815Z,98764.33
2022-08-26T10:52:20.501Z,98758.61
2022-08-26T10:55:08.464Z,98752.77
2022-08-26T10:58:06.492Z,98749.95
2022-08-26T11:01:15.852Z,98749.48
2022-08-26T11:04:01.859Z,98751.97
2022-08-26T11:06:33.751Z,98746.36
2022-08-26T11:09:12.538Z,98747.21
2022-08-26T11:11:40.422Z,98746.79
2022-08-26T11:14:28.941Z,98744.95
2022-08-26T11:17:04.771Z,98739.30
2022-08-26T11:19:59.630Z,98733.53
2022-08-26T11:22:41.510Z,98729.57
2022-08-26T11:25:29.941Z,98739.00
2022-08-26T11:28:03.112Z,98729.98
2022-08-26T11:30:40.508Z,98732.74
2022-08-26T11:33:32.618Z,98728.22
2022-08-26T11:36:11.961Z,98725.08
2022-08-26T11:38:45.308Z,98725.02
2022-08-26T11:41:20.569Z,98726.29
2022-08-26T11:43:53.314Z,98716.02
2022-08-26T11:46:30.420Z,98718.15
2022-08-26T11:49:06.478Z,98715.34
2022-08-26T11:51:40.841Z,98707.70
2022-08-26T11:54:30.547Z,98707.19
2022-08-26T11:57:12.886Z,98704.35
2022-08-26T11:59:44.813Z,98703.61
2022-08-26T12:02:17.853Z,98700.38
2022-08-26T12:04:51.884Z,98700.80
2022-08-26T12:07:26.448Z,98701.39
2022-08-26T12:10:05.850Z,98697.92
2022-08-26T12:12:39.485Z,98695.10
2022-08-26T12:15:22.792Z,98693.36
2022-08-26T12:17:54.882Z,98694.68
2022-08-26T12:20:30.885Z,98688.39
2022-08-26T12:23:02.012Z,98685.05
2022-08-26T12:25:36.034Z,98689.00
2022-08-26T12:28:09.747Z,98682.71
2022-08-26T12:30:40.298Z,98680.08
2022-08-26T12:33:22.964Z,98680.18
2022-08-26T12:35:58.837Z,98679.48
2022-08-26T12:38:30.285Z,98678.90
2022-08-26T12:41:00.751Z,98673.60
2022-08-26T12:43:42.459Z,98675.65
2022-08-26T12:46:19.949Z,98672.81
2022-08-26T12:48:49.602Z,98666.77
2022-08-26T12:51:29.435Z,98666.39
2022-08-26T12:53:59.414Z,98661.48
2022-08-26T12:56:38.582Z,98659.67
2022-08-26T12:59:21.365Z,98662.07
2022-08-26T13:01:49.747Z,98653.70
2022-08-26T13:04:44.364Z,98650.48
2022-08-26T13:07:22.235Z,98649.73
2022-08-26T13:09:53.236Z,98649.83
2022-08-26T13:12:40.908Z,98648.90
2022-08-26T13:15:08.930Z,98645.31
2022-08-26T13:17:37.917Z,98647.30
2022-08-26T13:20:06.167Z,98645.09
2022-08-26T13:22:34.515Z,98637.27
2022-08-26T13:25:02.339Z,98643.92
2022-08-26T13:27:30.797Z,98640.61
2022-08-26T13:29:59.281Z,98636.16
2022-08-26T13:32:27.967Z,98633.33
2022-08-26T13:34:57.570Z,98629.59
2022-08-26T13:37:34.940Z,98629.72
2022-08-26T13:40:07.857Z,98631.96
2022-08-26T13:42:35.788Z,98626.98
2022-08-26T13:45:04.889Z,98629.52
2022-08-26T13:47:32.884Z,98626.39
2022-08-26T13:50:00.715Z,98621.79
2022-08-26T13:52:30.282Z,98626.72
2022-08-26T13:55:00.643Z,98626.52
2022-08-26T13:57:30.338Z,98624.80
2022-08-26T13:59:59.594Z,98621.91
2022-08-26T14:02:28.479Z,98620.78
2022-08-26T14:04:56.815Z,98615.13
2022-08-26T14:07:26.384Z,98618.35
2022-08-26T14:09:54.609Z,98628.05
2022-08-26T14:12:22.769Z,98623.45
2022-08-26T14:14:51.278Z,98624.89
2022-08-26T14:17:24.699Z,98626.44
2022-08-26T14:19:53.969Z,98625.35
2022-08-26T14:22:23.406Z,98624.50
2022-08-26T14:24:51.836Z,98624.30
2022-08-26T14:27:19.650Z,98623.45
2022-08-26T14:29:48.557Z,98628.65
2022-08-26T14:32:26.238Z,98623.46
2022-08-26T14:34:56.352Z,98620.73
2022-08-26T14:37:27.256Z,98623.95
2022-08-26T14:39:56.233Z,98618.23
2022-08-26T14:42:31.490Z,98612.86
2022-08-26T14:45:02.067Z,98608.31
2022-08-26T14:47:29.955Z,98611.82
2022-08-26T14:50:00.495Z,98605.59
2022-08-26T14:52:31.229Z,98606.67
2022-08-26T14:55:00.224Z,98604.79
2022-08-26T14:57:30.322Z,98603.33
2022-08-26T15:00:00.458Z,98603.48
2022-08-26T15:02:33.375Z,98599.84
2022-08-26T15:05:04.299Z,98603.06
2022-08-26T15:07:32.352Z,98602.75
2022-08-26T15:10:00.865Z,98600.00
2022-08-26T15:12:30.437Z,98597.77
2022-08-26T15:14:59.769Z,98593.40
2022-08-26T15:17:29.933Z,98589.40
2022-08-26T15:20:00.898Z,98593.46
2022-08-26T15:22:30.916Z,98588.75
2022-08-26T15:25:01.034Z,98589.50
2022-08-26T15:27:30.079Z,98592.65
2022-08-26T15:30:01.929Z,98589.85
2022-08-26T15:32:34.092Z,98588.45
2022-08-26T15:35:05.547Z,98593.03
2022-08-26T15:37:39.558Z,98594.80
2022-08-26T15:40:11.204Z,98592.02
2022-08-26T15:42:41.912Z,98590.60
2022-08-26T15:45:12.023Z,98589.77
2022-08-26T15:48:01.340Z,98587.59
2022-08-26T15:50:32.279Z,98587.87
2022-08-26T15:53:03.221Z,98586.77
2022-08-26T15:55:31.020Z,98582.73
2022-08-26T15:58:01.819Z,98590.23
2022-08-26T16:00:30.503Z,98590.88
2022-08-26T16:02:58.991Z,98584.86
2022-08-26T16:05:28.544Z,98587.54
2022-08-26T16:08:01.608Z,98587.86
2022-08-26T16:10:33.798Z,98590.08
2022-08-26T16:13:03.893Z,98586.76
2022-08-26T16:15:37.715Z,98589.77
2022-08-26T16:18:10.627Z,98588.02
2022-08-26T16:21:12.532Z,98586.95
2022-08-26T16:23:46.987Z,98588.61
2022-08-26T16:26:22.558Z,98585.89
2022-08-26T16:28:53.058Z,98584.89
2022-08-26T16:31:25.179Z,98588.52
2022-08-26T16:33:56.822Z,98587.73
2022-08-26T16:36:26.037Z,98586.23
2022-08-26T16:39:00.672Z,98583.56
2022-08-26T16:41:33.384Z,98584.34
2022-08-26T16:44:04.220Z,98584.58
2022-08-26T16:46:34.438Z,98581.86
2022-08-26T16:49:07.121Z,98580.66
2022-08-26T16:51:37.996Z,98583.10
2022-08-26T16:54:09.965Z,98577.61
2022-08-26T16:56:41.470Z,98573.64
2022-08-26T16:59:13.623Z,98577.92
2022-08-26T17:01:44.041Z,98578.09
2022-08-26T17:04:16.435Z,98575.42
2022-08-26T17:06:46.488Z,98579.58
2022-08-26T17:09:16.948Z,98580.36
2022-08-26T17:11:47.179Z,98582.01
2022-08-26T17:14:18.970Z,98578.85
2022-08-26T17:16:51.555Z,98578.64
2022-08-26T17:19:23.804Z,98580.24
2022-08-26T17:21:54.180Z,98580.25
2022-08-26T17:24:24.472Z,98584.85
2022-08-26T17:26:53.902Z,98581.91
2022-08-26T17:29:28.214Z,98581.60
2022-08-26T17:31:59.675Z,98579.41
2022-08-26T17:34:27.520Z,98576.86
2022-08-26T17:36:55.431Z,98569.44
2022-08-26T17:39:23.218Z,98571.85
2022-08-26T17:41:55.176Z,98572.87
2022-08-26T17:44:25.741Z,98573.40
2022-08-26T17:46:53.569Z,98575.27
2022-08-26T17:49:21.437Z,98571.70
2022-08-26T17:51:49.168Z,98567.94
2022-08-26T17:54:16.970Z,98568.45
2022-08-26T17:56:46.708Z,98568.48
2022-08-26T17:59:16.673Z,98568.44
2022-08-26T18:01:48.187Z,98568.81
2022-08-26T18:04:20.594Z,98568.59
2022-08-26T18:06:50.630Z,98573.67
2022-08-26T18:09:20.774Z,98572.01
2022-08-26T18:11:48.633Z,98571.40
2022-08-26T18:14:16.465Z,98577.27
2022-08-26T18:16:44.214Z,98577.27
2022-08-26T18:19:16.652Z,98576.33
2022-08-26T18:21:44.695Z,98572.57
2022-08-26T18:24:14.353Z,98575.97
2022-08-26T18:26:50.973Z,98569.83
2022-08-26T18:29:25.398Z,98569.27
2022-08-26T18:31:53.120Z,98569.39
2022-08-26T18:34:21.172Z,98570.24
2022-08-26T18:36:52.804Z,98570.25
2022-08-26T18:39:24.594Z,98567.63
2022-08-26T18:41:56.131Z,98567.64
2022-08-26T18:44:26.794Z,98569.11
2022-08-26T18:46:54.628Z,98568.61
2022-08-26T18:49:22.750Z,98566.93
2022-08-26T18:51:55.955Z,98569.56
2022-08-26T18:54:26.234Z,98567.70
2022-08-26T18:56:54.015Z,98570.86
2022-08-26T18:59:29.626Z,98567.63
2022-08-26T19:02:02.055Z,98569.77
2022-08-26T19:04:37.827Z,98566.77
2022-08-26T19:07:08.802Z,98572.38
2022-08-26T19:09:40.474Z,98572.93
2022-08-26T19:12:10.184Z,98579.31
2022-08-26T19:14:44.837Z,98577.13
2022-08-26T19:17:12.741Z,98576.98
2022-08-26T19:19:44.499Z,98577.79
2022-08-26T19:22:16.949Z,98575.60
2022-08-26T19:24:44.726Z,98570.14
2022-08-26T19:27:14.925Z,98575.66
2022-08-26T19:29:46.799Z,98575.77
2022-08-26T19:32:14.568Z,98577.96
2022-08-26T19:34:45.818Z,98580.30
2022-08-26T19:37:13.544Z,98576.23
2022-08-26T19:39:41.312Z,98581.30
2022-08-26T19:42:09.291Z,98579.89
2022-08-26T19:44:55.667Z,98580.05
2022-08-26T19:47:26.110Z,98578.25
2022-08-26T19:49:58.258Z,98578.73
2022-08-26T19:52:29.842Z,98578.77
2022-08-26T19:55:03.037Z,98581.23
2022-08-26T19:57:30.868Z,98576.07
2022-08-26T20:00:02.705Z,98579.27
2022-08-26T20:02:32.002Z,98577.98
2022-08-26T20:04:59.933Z,98577.23
2022-08-26T20:07:31.573Z,98577.77
2022-08-26T20:10:01.671Z,98578.15
2022-08-26T20:12:33.787Z,98585.73
2022-08-26T20:15:05.384Z,98584.10
2022-08-26T20:17:35.794Z,98589.12
2022-08-26T20:20:33.295Z,98588.61
2022-08-26T20:23:08.891Z,98590.59
2022-08-26T20:25:36.753Z,98589.69
2022-08-26T20:28:06.188Z,98591.03
2022-08-26T20:30:34.542Z,98587.33
2022-08-26T20:33:04.789Z,98590.39
2022-08-26T20:35:35.032Z,98591.10
2022-08-26T20:38:05.858Z,98596.29
2022-08-26T20:40:38.149Z,98595.73
2022-08-26T20:43:08.878Z,98591.86
2022-08-26T20:45:39.179Z,98597.14
2022-08-26T20:48:09.637Z,98597.21
2022-08-26T20:50:41.080Z,98599.15
2022-08-26T20:53:12.680Z,98597.65
2022-08-26T20:55:45.000Z,98598.77
2022-08-26T20:58:14.972Z,98600.23
2022-08-26T21:00:47.531Z,98600.71
2022-08-26T21:03:17.670Z,98599.38
2022-08-26T21:05:47.911Z,98592.73
2022-08-26T21:08:17.608Z,98595.73
2022-08-26T21:10:51.127Z,98598.19
2022-08-26T21:13:22.361Z,98600.25
2022-08-26T21:15:52.652Z,98600.67
2022-08-26T21:18:22.928Z,98599.70
2022-08-26T21:20:54.380Z,98604.29
2022-08-26T21:23:28.675Z,98603.13
2022-08-26T21:26:05.445Z,98604.89
2022-08-26T21:28:39.688Z,98606.48
2022-08-26T21:31:14.016Z,98607.75
2022-08-26T21:33:45.912Z,98605.32
2022-08-26T21:36:18.816Z,98607.27
2022-08-26T21:38:50.713Z,98605.38
2022-08-26T21:41:23.600Z,98602.92
2022-08-26T21:43:59.041Z,98600.08
2022-08-26T21:46:32.028Z,98598.53
2022-08-26T21:49:07.533Z,98596.73
2022-08-26T21:51:42.032Z,98595.00
2022-08-26T21:54:14.507Z,98598.34
2022-08-26T21:56:48.219Z,98599.30
2022-08-26T21:59:18.805Z,98595.95
2022-08-26T22:01:51.310Z,98598.52
2022-08-26T22:04:23.339Z,98599.45
2022-08-26T22:06:57.730Z,98599.02
2022-08-26T22:09:33.804Z,98600.79
2022-08-26T22:12:03.890Z,98604.35
2022-08-26T22:14:33.595Z,98604.19
2022-08-26T22:17:06.222Z,98608.05
2022-08-26T22:19:45.764Z,98610.45
2022-08-26T22:22:20.599Z,98610.90
2022-08-26T22:24:51.308Z,98605.10
2022-08-26T22:27:21.555Z,98607.89
2022-08-26T22:29:53.815Z,98608.70
2022-08-26T22:32:24.116Z,98609.43
2022-08-26T22:34:54.832Z,98612.08
2022-08-26T22:37:25.065Z,98610.52
2022-08-26T22:39:55.827Z,98608.31
2022-08-26T22:42:23.863Z,98611.10
2022-08-26T22:44:54.157Z,98606.62
2022-08-26T22:47:27.206Z,98607.47
2022-08-26T22:49:57.474Z,98605.52
2022-08-26T22:52:29.084Z,98604.90
2022-08-26T22:55:00.855Z,98601.56
2022-08-26T22:57:29.784Z,98601.86
2022-08-26T23:00:02.623Z,98596.45
2022-08-26T23:02:30.592Z,98598.14
2022-08-26T23:05:00.686Z,98598.16
2022-08-26T23:07:28.853Z,98601.59
2022-08-26T23:10:02.173Z,98597.87
2022-08-26T23:12:29.989Z,98599.30
2022-08-26T23:14:59.986Z,98594.39
2022-08-26T23:17:31.707Z,98594.56
2022-08-26T23:20:04.942Z,98594.95
2022-08-26T23:22:34.660Z,98590.29
2022-08-26T23:25:08.972Z,98588.08
2022-08-26T23:27:43.350Z,98587.61
2022-08-26T23:30:23.171Z,98587.80
2022-08-26T23:32:54.315Z,98583.16
2022-08-26T23:35:25.283Z,98579.29
2022-08-26T23:37:58.925Z,98577.15
2022-08-26T23:40:34.056Z,98572.31
2022-08-26T23:43:08.178Z,98573.88
2022-08-26T23:45:38.544Z,98570.48
2022-08-26T23:48:11.118Z,98567.19
2022-08-26T23:51:00.092Z,98570.26
2022-08-26T23:53:28.927Z,98567.00
2022-08-26T23:56:00.162Z,98564.77
2022-08-26T23:58:30.432Z,98558.37
